sensor_id;sensor_type;location;lat;lon;timestamp;P1;durP1;ratioP1;P2;durP2;ratioP2
68886;SDS011;55925;51.764;6.402;2023-07-20T00:01:23;10.88;;;4.35;;
68886;SDS011;55925;51.764;6.402;2023-07-20T00:03:49;10.20;;;4.22;;
68886;SDS011;55925;51.764;6.402;2023-07-20T00:06:20;9.43;;;4.80;;
68886;SDS011;55925;51.764;6.402;2023-07-20T00:08:46;12.43;;;4.43;;
68886;SDS011;55925;51.764;6.402;2023-07-20T00:11:12;7.82;;;4.40;;
68886;SDS011;55925;51.764;6.402;2023-07-20T00:13:38;10.90;;;4.55;;
68886;SDS011;55925;51.764;6.402;2023-07-20T00:16:04;8.70;;;4.78;;
68886;SDS011;55925;51.764;6.402;2023-07-20T00:18:30;9.05;;;4.57;;
68886;SDS011;55925;51.764;6.402;2023-07-20T00:20:56;11.27;;;4.78;;
68886;SDS011;55925;51.764;6.402;2023-07-20T00:23:25;11.75;;;5.80;;
68886;SDS011;55925;51.764;6.402;2023-07-20T00:25:51;10.15;;;4.40;;
68886;SDS011;55925;51.764;6.402;2023-07-20T00:28:17;9.88;;;4.95;;
68886;SDS011;55925;51.764;6.402;2023-07-20T00:30:43;9.30;;;4.75;;
68886;SDS011;55925;51.764;6.402;2023-07-20T00:33:10;8.43;;;4.63;;
68886;SDS011;55925;51.764;6.402;2023-07-20T00:35:36;9.85;;;5.20;;
68886;SDS011;55925;51.764;6.402;2023-07-20T00:38:03;12.15;;;5.15;;
68886;SDS011;55925;51.764;6.402;2023-07-20T00:40:29;9.00;;;4.60;;
68886;SDS011;55925;51.764;6.402;2023-07-20T00:43:01;12.13;;;4.72;;
68886;SDS011;55925;51.764;6.402;2023-07-20T00:45:27;9.32;;;4.90;;
68886;SDS011;55925;51.764;6.402;2023-07-20T00:47:53;10.73;;;5.40;;
68886;SDS011;55925;51.764;6.402;2023-07-20T00:50:19;9.20;;;5.22;;
68886;SDS011;55925;51.764;6.402;2023-07-20T00:52:45;10.20;;;4.63;;
68886;SDS011;55925;51.764;6.402;2023-07-20T00:55:11;10.88;;;5.57;;
68886;SDS011;55925;51.764;6.402;2023-07-20T00:57:37;11.70;;;5.40;;
68886;SDS011;55925;51.764;6.402;2023-07-20T01:00:04;9.88;;;4.95;;
68886;SDS011;55925;51.764;6.402;2023-07-20T01:02:30;11.68;;;4.90;;
68886;SDS011;55925;51.764;6.402;2023-07-20T01:04:56;11.40;;;4.75;;
68886;SDS011;55925;51.764;6.402;2023-07-20T01:12:26;9.70;;;5.13;;
68886;SDS011;55925;51.764;6.402;2023-07-20T01:14:53;10.30;;;5.22;;
68886;SDS011;55925;51.764;6.402;2023-07-20T01:17:20;11.15;;;5.53;;
68886;SDS011;55925;51.764;6.402;2023-07-20T01:19:46;13.85;;;5.53;;
68886;SDS011;55925;51.764;6.402;2023-07-20T01:22:28;11.70;;;6.07;;
68886;SDS011;55925;51.764;6.402;2023-07-20T01:25:07;10.23;;;5.28;;
68886;SDS011;55925;51.764;6.402;2023-07-20T01:32:49;12.07;;;5.97;;
68886;SDS011;55925;51.764;6.402;2023-07-20T01:35:15;11.35;;;5.35;;
68886;SDS011;55925;51.764;6.402;2023-07-20T01:37:43;13.15;;;6.43;;
68886;SDS011;55925;51.764;6.402;2023-07-20T01:40:10;10.75;;;6.03;;
68886;SDS011;55925;51.764;6.402;2023-07-20T01:42:36;17.50;;;7.43;;
68886;SDS011;55925;51.764;6.402;2023-07-20T01:45:02;14.23;;;7.20;;
68886;SDS011;55925;51.764;6.402;2023-07-20T01:47:28;13.73;;;6.75;;
68886;SDS011;55925;51.764;6.402;2023-07-20T01:49:55;13.05;;;7.00;;
68886;SDS011;55925;51.764;6.402;2023-07-20T01:52:21;19.00;;;8.65;;
68886;SDS011;55925;51.764;6.402;2023-07-20T01:54:47;12.15;;;7.57;;
68886;SDS011;55925;51.764;6.402;2023-07-20T01:57:12;18.02;;;7.90;;
68886;SDS011;55925;51.764;6.402;2023-07-20T01:59:39;12.25;;;6.25;;
68886;SDS011;55925;51.764;6.402;2023-07-20T02:02:05;11.20;;;5.55;;
68886;SDS011;55925;51.764;6.402;2023-07-20T02:04:31;10.05;;;5.57;;
68886;SDS011;55925;51.764;6.402;2023-07-20T02:06:57;12.15;;;5.70;;
68886;SDS011;55925;51.764;6.402;2023-07-20T02:09:23;10.77;;;5.65;;
68886;SDS011;55925;51.764;6.402;2023-07-20T02:11:49;10.70;;;4.85;;
68886;SDS011;55925;51.764;6.402;2023-07-20T02:14:15;13.00;;;6.97;;
68886;SDS011;55925;51.764;6.402;2023-07-20T02:16:41;11.57;;;5.32;;
68886;SDS011;55925;51.764;6.402;2023-07-20T02:19:07;11.55;;;5.50;;
68886;SDS011;55925;51.764;6.402;2023-07-20T02:21:33;10.30;;;5.10;;
68886;SDS011;55925;51.764;6.402;2023-07-20T02:23:59;12.40;;;5.75;;
68886;SDS011;55925;51.764;6.402;2023-07-20T02:26:25;10.57;;;5.60;;
68886;SDS011;55925;51.764;6.402;2023-07-20T02:28:51;15.20;;;5.78;;
68886;SDS011;55925;51.764;6.402;2023-07-20T02:31:17;11.73;;;5.18;;
68886;SDS011;55925;51.764;6.402;2023-07-20T02:33:43;11.10;;;5.07;;
68886;SDS011;55925;51.764;6.402;2023-07-20T02:36:09;11.60;;;5.07;;
68886;SDS011;55925;51.764;6.402;2023-07-20T02:38:35;9.65;;;5.38;;
68886;SDS011;55925;51.764;6.402;2023-07-20T02:41:01;8.82;;;4.38;;
68886;SDS011;55925;51.764;6.402;2023-07-20T02:43:27;9.93;;;4.78;;
68886;SDS011;55925;51.764;6.402;2023-07-20T02:45:53;7.20;;;4.32;;
68886;SDS011;55925;51.764;6.402;2023-07-20T02:48:19;8.32;;;4.47;;
68886;SDS011;55925;51.764;6.402;2023-07-20T02:50:45;9.40;;;4.45;;
68886;SDS011;55925;51.764;6.402;2023-07-20T02:53:11;10.40;;;4.60;;
68886;SDS011;55925;51.764;6.402;2023-07-20T02:55:37;9.77;;;5.13;;
68886;SDS011;55925;51.764;6.402;2023-07-20T02:58:03;9.35;;;4.95;;
68886;SDS011;55925;51.764;6.402;2023-07-20T03:00:29;8.98;;;4.28;;
68886;SDS011;55925;51.764;6.402;2023-07-20T03:02:55;8.45;;;4.28;;
68886;SDS011;55925;51.764;6.402;2023-07-20T03:05:22;9.77;;;4.18;;
68886;SDS011;55925;51.764;6.402;2023-07-20T03:07:52;8.13;;;4.22;;
68886;SDS011;55925;51.764;6.402;2023-07-20T03:10:18;9.23;;;4.30;;
68886;SDS011;55925;51.764;6.402;2023-07-20T03:12:44;9.57;;;4.30;;
68886;SDS011;55925;51.764;6.402;2023-07-20T03:15:10;8.80;;;4.47;;
68886;SDS011;55925;51.764;6.402;2023-07-20T03:17:36;9.20;;;4.38;;
68886;SDS011;55925;51.764;6.402;2023-07-20T03:20:03;10.02;;;4.55;;
68886;SDS011;55925;51.764;6.402;2023-07-20T03:22:30;9.02;;;4.22;;
68886;SDS011;55925;51.764;6.402;2023-07-20T03:24:56;8.88;;;4.72;;
68886;SDS011;55925;51.764;6.402;2023-07-20T03:27:22;10.32;;;4.97;;
68886;SDS011;55925;51.764;6.402;2023-07-20T03:29:48;10.43;;;3.95;;
68886;SDS011;55925;51.764;6.402;2023-07-20T03:32:14;9.02;;;5.28;;
68886;SDS011;55925;51.764;6.402;2023-07-20T03:34:40;7.38;;;3.97;;
68886;SDS011;55925;51.764;6.402;2023-07-20T03:37:06;7.45;;;4.32;;
68886;SDS011;55925;51.764;6.402;2023-07-20T03:39:32;9.50;;;5.03;;
68886;SDS011;55925;51.764;6.402;2023-07-20T03:41:58;8.07;;;4.32;;
68886;SDS011;55925;51.764;6.402;2023-07-20T03:44:24;7.75;;;3.92;;
68886;SDS011;55925;51.764;6.402;2023-07-20T03:46:50;8.10;;;3.78;;
68886;SDS011;55925;51.764;6.402;2023-07-20T03:49:16;6.40;;;3.28;;
68886;SDS011;55925;51.764;6.402;2023-07-20T03:51:43;9.05;;;4.38;;
68886;SDS011;55925;51.764;6.402;2023-07-20T03:54:09;10.43;;;4.15;;
68886;SDS011;55925;51.764;6.402;2023-07-20T03:56:35;8.30;;;4.22;;
68886;SDS011;55925;51.764;6.402;2023-07-20T03:59:01;8.18;;;4.03;;
68886;SDS011;55925;51.764;6.402;2023-07-20T04:01:27;7.40;;;3.83;;
68886;SDS011;55925;51.764;6.402;2023-07-20T04:03:53;7.95;;;4.55;;
68886;SDS011;55925;51.764;6.402;2023-07-20T04:06:19;10.23;;;3.72;;
68886;SDS011;55925;51.764;6.402;2023-07-20T04:08:45;6.80;;;3.90;;
68886;SDS011;55925;51.764;6.402;2023-07-20T04:11:12;6.90;;;3.15;;
68886;SDS011;55925;51.764;6.402;2023-07-20T04:13:38;6.95;;;3.15;;
68886;SDS011;55925;51.764;6.402;2023-07-20T04:16:04;6.40;;;3.10;;
68886;SDS011;55925;51.764;6.402;2023-07-20T04:18:30;6.25;;;3.13;;
68886;SDS011;55925;51.764;6.402;2023-07-20T04:20:56;7.15;;;3.25;;
68886;SDS011;55925;51.764;6.402;2023-07-20T04:23:22;7.20;;;3.03;;
68886;SDS011;55925;51.764;6.402;2023-07-20T04:25:48;6.43;;;3.00;;
68886;SDS011;55925;51.764;6.402;2023-07-20T04:28:14;5.35;;;2.70;;
68886;SDS011;55925;51.764;6.402;2023-07-20T04:30:40;8.00;;;3.40;;
68886;SDS011;55925;51.764;6.402;2023-07-20T04:33:06;5.65;;;3.13;;
68886;SDS011;55925;51.764;6.402;2023-07-20T04:35:51;6.28;;;2.47;;
68886;SDS011;55925;51.764;6.402;2023-07-20T04:38:18;5.38;;;3.10;;
68886;SDS011;55925;51.764;6.402;2023-07-20T04:40:45;7.38;;;2.70;;
68886;SDS011;55925;51.764;6.402;2023-07-20T04:43:12;5.90;;;2.85;;
68886;SDS011;55925;51.764;6.402;2023-07-20T04:45:38;7.35;;;3.10;;
68886;SDS011;55925;51.764;6.402;2023-07-20T04:48:06;7.15;;;3.08;;
68886;SDS011;55925;51.764;6.402;2023-07-20T04:50:33;7.47;;;2.70;;
68886;SDS011;55925;51.764;6.402;2023-07-20T04:52:59;6.18;;;3.10;;
68886;SDS011;55925;51.764;6.402;2023-07-20T04:55:26;5.18;;;2.78;;
68886;SDS011;55925;51.764;6.402;2023-07-20T04:57:52;4.80;;;2.50;;
68886;SDS011;55925;51.764;6.402;2023-07-20T05:00:19;5.22;;;2.88;;
68886;SDS011;55925;51.764;6.402;2023-07-20T05:02:46;7.60;;;2.67;;
68886;SDS011;55925;51.764;6.402;2023-07-20T05:05:14;6.38;;;2.55;;
68886;SDS011;55925;51.764;6.402;2023-07-20T05:07:40;8.98;;;2.92;;
68886;SDS011;55925;51.764;6.402;2023-07-20T05:10:06;6.53;;;2.80;;
68886;SDS011;55925;51.764;6.402;2023-07-20T05:12:32;4.72;;;2.47;;
68886;SDS011;55925;51.764;6.402;2023-07-20T05:14:58;5.60;;;3.03;;
68886;SDS011;55925;51.764;6.402;2023-07-20T05:17:24;5.40;;;2.60;;
68886;SDS011;55925;51.764;6.402;2023-07-20T05:19:50;6.15;;;2.45;;
68886;SDS011;55925;51.764;6.402;2023-07-20T05:22:16;4.82;;;2.35;;
68886;SDS011;55925;51.764;6.402;2023-07-20T05:24:42;5.15;;;2.67;;
68886;SDS011;55925;51.764;6.402;2023-07-20T05:27:08;6.03;;;2.50;;
68886;SDS011;55925;51.764;6.402;2023-07-20T05:29:34;5.38;;;2.53;;
68886;SDS011;55925;51.764;6.402;2023-07-20T05:32:00;4.13;;;2.05;;
68886;SDS011;55925;51.764;6.402;2023-07-20T05:34:27;5.47;;;2.40;;
68886;SDS011;55925;51.764;6.402;2023-07-20T05:36:54;4.80;;;2.30;;
68886;SDS011;55925;51.764;6.402;2023-07-20T05:39:20;4.45;;;2.30;;
68886;SDS011;55925;51.764;6.402;2023-07-20T05:41:46;5.13;;;2.50;;
68886;SDS011;55925;51.764;6.402;2023-07-20T05:44:12;6.32;;;2.28;;
68886;SDS011;55925;51.764;6.402;2023-07-20T05:46:38;6.22;;;2.22;;
68886;SDS011;55925;51.764;6.402;2023-07-20T05:49:04;3.90;;;1.80;;
68886;SDS011;55925;51.764;6.402;2023-07-20T05:51:30;3.70;;;1.80;;
68886;SDS011;55925;51.764;6.402;2023-07-20T05:53:56;4.00;;;1.70;;
68886;SDS011;55925;51.764;6.402;2023-07-20T05:56:22;4.20;;;2.10;;
68886;SDS011;55925;51.764;6.402;2023-07-20T05:58:48;4.70;;;2.30;;
68886;SDS011;55925;51.764;6.402;2023-07-20T06:01:15;4.47;;;1.90;;
68886;SDS011;55925;51.764;6.402;2023-07-20T06:03:41;4.40;;;2.05;;
68886;SDS011;55925;51.764;6.402;2023-07-20T06:06:07;4.53;;;2.10;;
68886;SDS011;55925;51.764;6.402;2023-07-20T06:08:34;5.15;;;2.10;;
68886;SDS011;55925;51.764;6.402;2023-07-20T06:11:00;4.90;;;2.78;;
68886;SDS011;55925;51.764;6.402;2023-07-20T06:13:26;6.93;;;2.42;;
68886;SDS011;55925;51.764;6.402;2023-07-20T06:15:52;5.03;;;2.13;;
68886;SDS011;55925;51.764;6.402;2023-07-20T06:18:18;5.65;;;2.30;;
68886;SDS011;55925;51.764;6.402;2023-07-20T06:20:49;5.10;;;2.33;;
68886;SDS011;55925;51.764;6.402;2023-07-20T06:23:16;5.78;;;2.33;;
68886;SDS011;55925;51.764;6.402;2023-07-20T06:25:42;4.93;;;2.20;;
68886;SDS011;55925;51.764;6.402;2023-07-20T06:28:08;4.60;;;2.05;;
68886;SDS011;55925;51.764;6.402;2023-07-20T06:30:34;4.03;;;2.00;;
68886;SDS011;55925;51.764;6.402;2023-07-20T06:33:00;5.00;;;1.90;;
68886;SDS011;55925;51.764;6.402;2023-07-20T06:35:26;5.38;;;2.28;;
68886;SDS011;55925;51.764;6.402;2023-07-20T06:37:52;5.82;;;2.20;;
68886;SDS011;55925;51.764;6.402;2023-07-20T06:40:18;5.88;;;2.25;;
68886;SDS011;55925;51.764;6.402;2023-07-20T06:42:44;4.85;;;1.88;;
68886;SDS011;55925;51.764;6.402;2023-07-20T06:45:10;5.25;;;2.10;;
68886;SDS011;55925;51.764;6.402;2023-07-20T06:47:39;4.50;;;2.30;;
68886;SDS011;55925;51.764;6.402;2023-07-20T06:50:06;3.92;;;2.00;;
68886;SDS011;55925;51.764;6.402;2023-07-20T06:52:32;6.60;;;2.53;;
68886;SDS011;55925;51.764;6.402;2023-07-20T06:54:58;5.03;;;2.30;;
68886;SDS011;55925;51.764;6.402;2023-07-20T06:57:25;4.03;;;2.20;;
68886;SDS011;55925;51.764;6.402;2023-07-20T06:59:51;5.75;;;2.30;;
68886;SDS011;55925;51.764;6.402;2023-07-20T07:02:18;5.65;;;2.00;;
68886;SDS011;55925;51.764;6.402;2023-07-20T07:04:44;4.18;;;2.10;;
68886;SDS011;55925;51.764;6.402;2023-07-20T07:07:13;6.10;;;2.28;;
68886;SDS011;55925;51.764;6.402;2023-07-20T07:09:39;6.45;;;2.30;;
68886;SDS011;55925;51.764;6.402;2023-07-20T07:12:05;5.35;;;2.40;;
68886;SDS011;55925;51.764;6.402;2023-07-20T07:14:31;4.40;;;2.05;;
68886;SDS011;55925;51.764;6.402;2023-07-20T07:16:57;4.13;;;2.03;;
68886;SDS011;55925;51.764;6.402;2023-07-20T07:19:23;4.95;;;2.30;;
68886;SDS011;55925;51.764;6.402;2023-07-20T07:21:49;4.93;;;2.13;;
68886;SDS011;55925;51.764;6.402;2023-07-20T07:24:15;4.63;;;2.22;;
68886;SDS011;55925;51.764;6.402;2023-07-20T07:26:41;7.80;;;2.60;;
68886;SDS011;55925;51.764;6.402;2023-07-20T07:29:07;3.75;;;1.83;;
68886;SDS011;55925;51.764;6.402;2023-07-20T07:31:34;3.63;;;1.90;;
68886;SDS011;55925;51.764;6.402;2023-07-20T07:34:03;3.97;;;1.90;;
68886;SDS011;55925;51.764;6.402;2023-07-20T07:36:30;3.90;;;2.08;;
68886;SDS011;55925;51.764;6.402;2023-07-20T07:38:56;4.03;;;2.00;;
68886;SDS011;55925;51.764;6.402;2023-07-20T07:41:22;4.50;;;1.42;;
68886;SDS011;55925;51.764;6.402;2023-07-20T07:43:48;3.88;;;1.40;;
68886;SDS011;55925;51.764;6.402;2023-07-20T07:46:14;3.20;;;1.25;;
68886;SDS011;55925;51.764;6.402;2023-07-20T07:48:40;3.47;;;1.40;;
68886;SDS011;55925;51.764;6.402;2023-07-20T07:51:06;4.93;;;1.88;;
68886;SDS011;55925;51.764;6.402;2023-07-20T07:53:32;3.38;;;1.50;;
68886;SDS011;55925;51.764;6.402;2023-07-20T07:56:00;2.92;;;1.45;;
68886;SDS011;55925;51.764;6.402;2023-07-20T07:58:28;3.42;;;1.20;;
68886;SDS011;55925;51.764;6.402;2023-07-20T08:00:54;3.65;;;1.40;;
68886;SDS011;55925;51.764;6.402;2023-07-20T08:03:20;4.15;;;1.48;;
68886;SDS011;55925;51.764;6.402;2023-07-20T08:05:49;3.53;;;1.10;;
68886;SDS011;55925;51.764;6.402;2023-07-20T08:08:15;4.28;;;1.30;;
68886;SDS011;55925;51.764;6.402;2023-07-20T08:10:41;2.80;;;1.00;;
68886;SDS011;55925;51.764;6.402;2023-07-20T08:13:07;3.38;;;1.40;;
68886;SDS011;55925;51.764;6.402;2023-07-20T08:15:33;3.78;;;1.25;;
68886;SDS011;55925;51.764;6.402;2023-07-20T08:17:59;2.95;;;1.10;;
68886;SDS011;55925;51.764;6.402;2023-07-20T08:20:25;3.10;;;1.20;;
68886;SDS011;55925;51.764;6.402;2023-07-20T08:22:52;2.53;;;1.02;;
68886;SDS011;55925;51.764;6.402;2023-07-20T08:25:19;2.72;;;1.00;;
68886;SDS011;55925;51.764;6.402;2023-07-20T08:27:45;1.95;;;0.70;;
68886;SDS011;55925;51.764;6.402;2023-07-20T08:30:12;3.15;;;1.17;;
68886;SDS011;55925;51.764;6.402;2023-07-20T08:32:38;3.28;;;1.13;;
68886;SDS011;55925;51.764;6.402;2023-07-20T08:35:06;3.53;;;1.13;;
68886;SDS011;55925;51.764;6.402;2023-07-20T08:37:32;1.50;;;0.70;;
68886;SDS011;55925;51.764;6.402;2023-07-20T08:39:58;4.13;;;1.42;;
68886;SDS011;55925;51.764;6.402;2023-07-20T08:42:24;3.22;;;1.00;;
68886;SDS011;55925;51.764;6.402;2023-07-20T08:44:50;2.17;;;0.80;;
68886;SDS011;55925;51.764;6.402;2023-07-20T08:47:18;3.33;;;1.10;;
68886;SDS011;55925;51.764;6.402;2023-07-20T08:49:44;3.20;;;1.35;;
68886;SDS011;55925;51.764;6.402;2023-07-20T08:52:14;3.70;;;0.90;;
68886;SDS011;55925;51.764;6.402;2023-07-20T08:54:40;3.35;;;1.00;;
68886;SDS011;55925;51.764;6.402;2023-07-20T08:57:06;3.33;;;1.10;;
68886;SDS011;55925;51.764;6.402;2023-07-20T08:59:32;2.10;;;0.73;;
68886;SDS011;55925;51.764;6.402;2023-07-20T09:02:00;3.17;;;1.00;;
68886;SDS011;55925;51.764;6.402;2023-07-20T09:04:26;4.55;;;1.10;;
68886;SDS011;55925;51.764;6.402;2023-07-20T09:06:52;2.25;;;1.08;;
68886;SDS011;55925;51.764;6.402;2023-07-20T09:09:18;2.85;;;1.02;;
68886;SDS011;55925;51.764;6.402;2023-07-20T09:11:47;2.97;;;0.80;;
68886;SDS011;55925;51.764;6.402;2023-07-20T09:14:14;2.50;;;0.90;;
68886;SDS011;55925;51.764;6.402;2023-07-20T09:16:51;1.75;;;0.88;;
68886;SDS011;55925;51.764;6.402;2023-07-20T09:21:44;3.10;;;1.40;;
68886;SDS011;55925;51.764;6.402;2023-07-20T09:24:11;2.30;;;0.80;;
68886;SDS011;55925;51.764;6.402;2023-07-20T09:26:41;2.40;;;0.93;;
68886;SDS011;55925;51.764;6.402;2023-07-20T09:29:10;2.10;;;0.85;;
68886;SDS011;55925;51.764;6.402;2023-07-20T09:31:37;3.58;;;0.90;;
68886;SDS011;55925;51.764;6.402;2023-07-20T09:34:05;2.33;;;0.82;;
68886;SDS011;55925;51.764;6.402;2023-07-20T09:36:35;1.75;;;0.77;;
68886;SDS011;55925;51.764;6.402;2023-07-20T09:39:02;2.55;;;1.00;;
68886;SDS011;55925;51.764;6.402;2023-07-20T09:41:29;2.50;;;0.88;;
68886;SDS011;55925;51.764;6.402;2023-07-20T09:43:55;2.30;;;0.82;;
68886;SDS011;55925;51.764;6.402;2023-07-20T09:46:22;1.98;;;0.70;;
68886;SDS011;55925;51.764;6.402;2023-07-20T09:48:51;2.40;;;1.00;;
68886;SDS011;55925;51.764;6.402;2023-07-20T09:51:24;2.53;;;0.90;;
68886;SDS011;55925;51.764;6.402;2023-07-20T09:53:53;2.72;;;1.00;;
68886;SDS011;55925;51.764;6.402;2023-07-20T09:56:21;2.90;;;0.90;;
68886;SDS011;55925;51.764;6.402;2023-07-20T09:58:48;2.33;;;0.90;;
68886;SDS011;55925;51.764;6.402;2023-07-20T10:01:16;2.17;;;0.90;;
68886;SDS011;55925;51.764;6.402;2023-07-20T10:03:44;6.18;;;1.20;;
68886;SDS011;55925;51.764;6.402;2023-07-20T10:06:12;2.92;;;1.02;;
68886;SDS011;55925;51.764;6.402;2023-07-20T10:08:41;3.65;;;0.82;;
68886;SDS011;55925;51.764;6.402;2023-07-20T10:11:07;5.43;;;0.90;;
68886;SDS011;55925;51.764;6.402;2023-07-20T10:13:36;2.03;;;0.70;;
68886;SDS011;55925;51.764;6.402;2023-07-20T10:16:03;1.85;;;0.65;;
68886;SDS011;55925;51.764;6.402;2023-07-20T10:21:02;3.15;;;0.80;;
68886;SDS011;55925;51.764;6.402;2023-07-20T10:23:29;2.83;;;0.82;;
68886;SDS011;55925;51.764;6.402;2023-07-20T10:25:56;2.10;;;0.70;;
68886;SDS011;55925;51.764;6.402;2023-07-20T10:28:23;2.80;;;0.70;;
68886;SDS011;55925;51.764;6.402;2023-07-20T10:30:50;2.00;;;0.82;;
68886;SDS011;55925;51.764;6.402;2023-07-20T10:33:16;2.47;;;0.70;;
68886;SDS011;55925;51.764;6.402;2023-07-20T10:35:57;2.70;;;0.77;;
68886;SDS011;55925;51.764;6.402;2023-07-20T10:41:15;3.42;;;0.80;;
68886;SDS011;55925;51.764;6.402;2023-07-20T10:43:42;1.73;;;0.80;;
68886;SDS011;55925;51.764;6.402;2023-07-20T10:46:10;2.25;;;0.80;;
68886;SDS011;55925;51.764;6.402;2023-07-20T10:48:36;1.80;;;0.70;;
68886;SDS011;55925;51.764;6.402;2023-07-20T10:51:22;3.22;;;0.73;;
68886;SDS011;55925;51.764;6.402;2023-07-20T10:53:49;2.38;;;0.70;;
68886;SDS011;55925;51.764;6.402;2023-07-20T10:56:19;1.63;;;0.60;;
68886;SDS011;55925;51.764;6.402;2023-07-20T10:58:45;2.50;;;0.77;;
68886;SDS011;55925;51.764;6.402;2023-07-20T11:01:16;3.35;;;0.80;;
68886;SDS011;55925;51.764;6.402;2023-07-20T11:03:42;2.35;;;0.70;;
68886;SDS011;55925;51.764;6.402;2023-07-20T11:11:23;2.60;;;0.85;;
68886;SDS011;55925;51.764;6.402;2023-07-20T11:14:02;2.58;;;0.70;;
68886;SDS011;55925;51.764;6.402;2023-07-20T11:16:35;3.03;;;1.00;;
68886;SDS011;55925;51.764;6.402;2023-07-20T11:19:02;2.72;;;0.95;;
68886;SDS011;55925;51.764;6.402;2023-07-20T11:21:30;1.65;;;0.70;;
68886;SDS011;55925;51.764;6.402;2023-07-20T11:24:02;2.58;;;0.90;;
68886;SDS011;55925;51.764;6.402;2023-07-20T11:26:28;3.05;;;0.90;;
68886;SDS011;55925;51.764;6.402;2023-07-20T11:28:54;3.97;;;0.93;;
68886;SDS011;55925;51.764;6.402;2023-07-20T11:31:20;3.22;;;0.95;;
68886;SDS011;55925;51.764;6.402;2023-07-20T11:33:46;2.60;;;0.80;;
68886;SDS011;55925;51.764;6.402;2023-07-20T11:36:12;2.80;;;0.95;;
68886;SDS011;55925;51.764;6.402;2023-07-20T11:38:41;2.72;;;0.77;;
68886;SDS011;55925;51.764;6.402;2023-07-20T11:41:08;2.90;;;0.80;;
68886;SDS011;55925;51.764;6.402;2023-07-20T11:43:35;1.60;;;0.70;;
68886;SDS011;55925;51.764;6.402;2023-07-20T11:46:04;1.98;;;0.80;;
68886;SDS011;55925;51.764;6.402;2023-07-20T11:48:30;1.70;;;0.80;;
68886;SDS011;55925;51.764;6.402;2023-07-20T11:50:56;1.65;;;0.70;;
68886;SDS011;55925;51.764;6.402;2023-07-20T11:53:22;2.70;;;0.73;;
68886;SDS011;55925;51.764;6.402;2023-07-20T11:55:50;2.05;;;0.80;;
68886;SDS011;55925;51.764;6.402;2023-07-20T11:58:16;1.95;;;0.70;;
68886;SDS011;55925;51.764;6.402;2023-07-20T12:00:44;2.97;;;1.02;;
68886;SDS011;55925;51.764;6.402;2023-07-20T12:03:11;3.00;;;0.80;;
68886;SDS011;55925;51.764;6.402;2023-07-20T12:05:38;2.25;;;0.88;;
68886;SDS011;55925;51.764;6.402;2023-07-20T12:08:04;1.83;;;0.73;;
68886;SDS011;55925;51.764;6.402;2023-07-20T12:10:30;2.25;;;0.80;;
68886;SDS011;55925;51.764;6.402;2023-07-20T12:13:03;1.60;;;0.73;;
68886;SDS011;55925;51.764;6.402;2023-07-20T12:15:29;2.95;;;0.90;;
68886;SDS011;55925;51.764;6.402;2023-07-20T12:17:57;2.05;;;0.93;;
68886;SDS011;55925;51.764;6.402;2023-07-20T12:20:30;1.42;;;0.60;;
68886;SDS011;55925;51.764;6.402;2023-07-20T12:23:00;2.70;;;0.80;;
68886;SDS011;55925;51.764;6.402;2023-07-20T12:26:00;2.70;;;0.90;;
68886;SDS011;55925;51.764;6.402;2023-07-20T12:28:20;3.33;;;0.90;;
68886;SDS011;55925;51.764;6.402;2023-07-20T12:30:47;2.20;;;0.90;;
68886;SDS011;55925;51.764;6.402;2023-07-20T12:33:21;2.17;;;0.80;;
68886;SDS011;55925;51.764;6.402;2023-07-20T12:35:47;2.08;;;0.70;;
68886;SDS011;55925;51.764;6.402;2023-07-20T12:38:14;2.33;;;0.88;;
68886;SDS011;55925;51.764;6.402;2023-07-20T12:40:40;3.13;;;0.70;;
68886;SDS011;55925;51.764;6.402;2023-07-20T12:43:07;2.30;;;0.70;;
68886;SDS011;55925;51.764;6.402;2023-07-20T12:45:33;2.53;;;0.77;;
68886;SDS011;55925;51.764;6.402;2023-07-20T12:47:59;2.40;;;0.80;;
68886;SDS011;55925;51.764;6.402;2023-07-20T12:50:26;1.98;;;0.70;;
68886;SDS011;55925;51.764;6.402;2023-07-20T12:52:52;2.05;;;0.88;;
68886;SDS011;55925;51.764;6.402;2023-07-20T12:55:18;2.80;;;0.88;;
68886;SDS011;55925;51.764;6.402;2023-07-20T12:57:45;3.67;;;0.80;;
68886;SDS011;55925;51.764;6.402;2023-07-20T13:00:13;2.25;;;0.80;;
68886;SDS011;55925;51.764;6.402;2023-07-20T13:02:40;1.95;;;0.70;;
68886;SDS011;55925;51.764;6.402;2023-07-20T13:05:06;2.20;;;0.73;;
68886;SDS011;55925;51.764;6.402;2023-07-20T13:07:34;2.30;;;0.80;;
68886;SDS011;55925;51.764;6.402;2023-07-20T13:10:00;2.60;;;0.98;;
68886;SDS011;55925;51.764;6.402;2023-07-20T13:12:30;2.80;;;0.80;;
68886;SDS011;55925;51.764;6.402;2023-07-20T13:14:56;3.42;;;0.80;;
68886;SDS011;55925;51.764;6.402;2023-07-20T13:17:25;1.67;;;0.80;;
68886;SDS011;55925;51.764;6.402;2023-07-20T13:19:51;1.77;;;0.73;;
68886;SDS011;55925;51.764;6.402;2023-07-20T13:22:17;3.15;;;0.90;;
68886;SDS011;55925;51.764;6.402;2023-07-20T13:24:44;2.53;;;0.80;;
68886;SDS011;55925;51.764;6.402;2023-07-20T13:27:13;3.22;;;1.08;;
68886;SDS011;55925;51.764;6.402;2023-07-20T13:29:39;2.33;;;0.80;;
68886;SDS011;55925;51.764;6.402;2023-07-20T13:32:06;2.47;;;0.88;;
68886;SDS011;55925;51.764;6.402;2023-07-20T13:34:33;2.50;;;0.90;;
68886;SDS011;55925;51.764;6.402;2023-07-20T13:36:59;1.88;;;0.85;;
68886;SDS011;55925;51.764;6.402;2023-07-20T13:39:25;2.58;;;0.80;;
68886;SDS011;55925;51.764;6.402;2023-07-20T13:41:53;1.77;;;0.80;;
68886;SDS011;55925;51.764;6.402;2023-07-20T13:44:19;2.67;;;0.90;;
68886;SDS011;55925;51.764;6.402;2023-07-20T13:46:48;2.03;;;0.80;;
68886;SDS011;55925;51.764;6.402;2023-07-20T13:49:14;1.58;;;0.75;;
68886;SDS011;55925;51.764;6.402;2023-07-20T13:51:43;2.33;;;0.80;;
68886;SDS011;55925;51.764;6.402;2023-07-20T13:54:09;2.30;;;0.82;;
68886;SDS011;55925;51.764;6.402;2023-07-20T13:56:36;2.38;;;0.80;;
68886;SDS011;55925;51.764;6.402;2023-07-20T13:59:02;2.65;;;0.90;;
68886;SDS011;55925;51.764;6.402;2023-07-20T14:01:28;2.90;;;1.10;;
68886;SDS011;55925;51.764;6.402;2023-07-20T14:03:56;2.42;;;0.95;;
68886;SDS011;55925;51.764;6.402;2023-07-20T14:06:22;3.17;;;0.80;;
68886;SDS011;55925;51.764;6.402;2023-07-20T14:08:48;2.30;;;0.80;;
68886;SDS011;55925;51.764;6.402;2023-07-20T14:11:15;2.80;;;1.10;;
68886;SDS011;55925;51.764;6.402;2023-07-20T14:13:41;1.88;;;0.80;;
68886;SDS011;55925;51.764;6.402;2023-07-20T14:16:07;2.17;;;0.80;;
68886;SDS011;55925;51.764;6.402;2023-07-20T14:18:33;2.03;;;0.90;;
68886;SDS011;55925;51.764;6.402;2023-07-20T14:21:00;2.33;;;0.85;;
68886;SDS011;55925;51.764;6.402;2023-07-20T14:23:28;3.45;;;0.93;;
68886;SDS011;55925;51.764;6.402;2023-07-20T14:25:54;2.80;;;1.00;;
68886;SDS011;55925;51.764;6.402;2023-07-20T14:28:20;3.38;;;0.98;;
68886;SDS011;55925;51.764;6.402;2023-07-20T14:30:46;2.75;;;0.98;;
68886;SDS011;55925;51.764;6.402;2023-07-20T14:33:12;5.03;;;1.13;;
68886;SDS011;55925;51.764;6.402;2023-07-20T14:35:38;2.83;;;1.10;;
68886;SDS011;55925;51.764;6.402;2023-07-20T14:38:04;3.33;;;1.00;;
68886;SDS011;55925;51.764;6.402;2023-07-20T14:40:30;8.43;;;1.23;;
68886;SDS011;55925;51.764;6.402;2023-07-20T14:42:56;3.33;;;1.00;;
68886;SDS011;55925;51.764;6.402;2023-07-20T14:45:22;1.75;;;0.80;;
68886;SDS011;55925;51.764;6.402;2023-07-20T14:47:48;4.55;;;1.02;;
68886;SDS011;55925;51.764;6.402;2023-07-20T14:50:18;2.78;;;1.10;;
68886;SDS011;55925;51.764;6.402;2023-07-20T14:52:44;2.10;;;0.90;;
68886;SDS011;55925;51.764;6.402;2023-07-20T14:55:10;2.65;;;1.00;;
68886;SDS011;55925;51.764;6.402;2023-07-20T14:57:36;2.50;;;1.00;;
68886;SDS011;55925;51.764;6.402;2023-07-20T15:00:03;3.08;;;1.02;;
68886;SDS011;55925;51.764;6.402;2023-07-20T15:02:36;2.03;;;0.80;;
68886;SDS011;55925;51.764;6.402;2023-07-20T15:05:08;3.13;;;1.10;;
68886;SDS011;55925;51.764;6.402;2023-07-20T15:07:34;2.72;;;1.05;;